Time;durP1;ratioP1;P1;durP2;ratioP2;P2;SDS_P1;SDS_P2;PMS_P1;PMS_P2;Temp;Humidity;BMP_temperature;BMP_pressure;BME280_temperature;BME280_humidity;BME280_pressure;Samples;Min_cycle;Max_cycle;Signal;HPM_P1;HPM_P2
2022/05/17 00:03:14;;;;;;;7.43;3.22;;;;;;;17.28;66.11;97142.44;6149294;23;20024;-80
2022/05/17 04:07:29;;;;;;;10.45;4.35;;;;;;;15.45;69.72;97189.56;6120001;23;20290;-78
2022/05/17 04:09:57;;;;;;;6.53;3.60;;;;;;;15.42;69.73;97192.59;6215448;23;20020;-78
2022/05/17 04:12:25;;;;;;;8.13;4.18;;;;;;;15.37;69.91;97203.72;6215411;23;20579;-78
2022/05/17 04:14:54;;;;;;;6.75;4.38;;;;;;;15.33;69.81;97199.03;6220102;23;20096;-79
2022/05/17 04:17:26;;;;;;;6.80;4.65;;;;;;;15.28;70.07;97201.44;6220967;23;20081;-78
2022/05/17 04:42:36;;;;;;;5.60;4.55;;;;;;;14.63;73.14;97214.84;6131132;23;20013;-80
2022/05/17 04:45:27;;;;;;;6.20;5.32;;;;;;;14.60;72.71;97209.97;6152233;23;20052;-81
2022/05/17 04:57:04;;;;;;;5.43;4.78;;;;;;;14.56;74.25;97225.31;6190869;23;20035;-80
2022/05/17 05:04:58;;;;;;;10.45;7.38;;;;;;;14.68;73.91;97228.22;6236768;23;20007;-81
2022/05/17 05:07:37;;;;;;;7.40;5.65;;;;;;;14.75;73.73;97233.50;6244325;23;20020;-78
2022/05/17 05:10:15;;;;;;;6.03;4.63;;;;;;;14.84;73.91;97237.59;6220624;23;20039;-81
2022/05/17 05:15:31;;;;;;;6.47;4.50;;;;;;;15.00;73.57;97247.00;6176526;23;20051;-81
2022/05/17 05:21:11;;;;;;;8.80;4.20;;;;;;;15.19;74.05;97250.72;6185350;23;20033;-80
2022/05/17 05:23:55;;;;;;;6.82;4.90;;;;;;;15.25;73.28;97250.75;6155700;23;20076;-79
2022/05/17 05:26:35;;;;;;;7.85;4.85;;;;;;;15.30;73.07;97252.78;6128499;23;20033;-82
2022/05/17 05:29:18;;;;;;;7.13;4.68;;;;;;;15.35;73.06;97250.41;6225216;23;20009;-79
2022/05/17 05:34:59;;;;;;;7.38;5.32;;;;;;;15.45;72.94;97258.72;6214767;23;20001;-80
2022/05/17 05:38:08;;;;;;;7.90;4.90;;;;;;;15.52;73.15;97261.38;6215409;23;20017;-80
2022/05/17 05:46:32;;;;;;;10.23;5.37;;;;;;;15.68;72.58;97257.59;6190314;23;20217;-79
2022/05/17 05:54:49;;;;;;;5.18;4.60;;;;;;;15.85;72.89;97265.97;6213451;23;20039;-80
2022/05/17 05:57:32;;;;;;;11.10;5.25;;;;;;;15.91;72.39;97265.16;6244660;23;20017;-80
2022/05/17 06:00:24;;;;;;;6.13;4.63;;;;;;;15.97;72.67;97269.63;6243579;23;20015;-80
2022/05/17 06:14:00;;;;;;;8.32;4.72;;;;;;;16.23;71.81;97268.88;6155357;23;20025;-78
2022/05/17 06:16:27;;;;;;;10.43;6.97;;;;;;;16.30;71.46;97278.59;6155587;23;20017;-78
2022/05/17 06:18:55;;;;;;;9.43;5.55;;;;;;;16.34;71.75;97274.56;6155649;23;20092;-78
2022/05/17 06:21:23;;;;;;;9.05;5.45;;;;;;;16.38;71.72;97276.59;6156120;23;20045;-78
2022/05/17 06:23:50;;;;;;;8.48;5.38;;;;;;;16.45;71.83;97279.22;6156083;23;20025;-79
2022/05/17 06:26:18;;;;;;;11.38;5.82;;;;;;;16.50;71.80;97274.16;6155406;23;20098;-78
2022/05/17 06:28:45;;;;;;;11.25;5.60;;;;;;;16.56;71.50;97272.53;6156127;23;20361;-79
2022/05/17 06:31:14;;;;;;;9.40;5.28;;;;;;;16.61;71.63;97275.34;6155892;23;20056;-78
2022/05/17 06:33:42;;;;;;;8.30;5.60;;;;;;;16.66;71.20;97272.91;6156130;23;20021;-78
2022/05/17 06:36:14;;;;;;;;;;;;;;;16.72;71.16;97279.22;6156411;23;20354;-79
2022/05/17 06:39:01;;;;;;;8.95;5.75;;;;;;;16.77;70.69;97277.59;6155399;23;19923;-78
2022/05/17 06:41:29;;;;;;;7.30;4.97;;;;;;;16.84;70.91;97278.41;6156286;23;20052;-78
2022/05/17 06:44:03;;;;;;;7.72;5.40;;;;;;;16.91;70.98;97277.59;6156227;23;20029;-78
2022/05/17 06:46:32;;;;;;;7.93;5.40;;;;;;;16.97;70.88;97268.88;6155275;23;20100;-78
2022/05/17 06:49:00;;;;;;;8.80;5.38;;;;;;;17.04;70.61;97274.94;6155893;23;20025;-78
2022/05/17 06:51:27;;;;;;;6.47;5.32;;;;;;;17.11;70.44;97270.47;6155246;23;20024;-78
2022/05/17 06:53:55;;;;;;;5.97;4.68;;;;;;;17.19;70.43;97274.72;6155820;23;20033;-78
2022/05/17 06:56:22;;;;;;;6.68;4.55;;;;;;;17.25;70.33;97271.22;6155764;23;20024;-78
2022/05/17 06:58:50;;;;;;;9.10;5.05;;;;;;;17.33;70.08;97267.56;6155637;23;20018;-78
2022/05/17 07:01:17;;;;;;;9.40;5.25;;;;;;;17.38;69.86;97265.09;6155889;23;20331;-78
2022/05/17 07:03:48;;;;;;;7.40;5.85;;;;;;;17.46;70.06;97267.50;6155862;23;20026;-78
2022/05/17 07:06:16;;;;;;;7.88;5.35;;;;;;;17.53;69.88;97264.84;6155170;23;20181;-78
2022/05/17 07:08:44;;;;;;;6.95;4.82;;;;;;;17.59;68.97;97267.44;6155599;23;20027;-78
2022/05/17 07:13:57;;;;;;;8.02;5.35;;;;;;;17.77;68.91;97265.94;6155275;23;20027;-78
2022/05/17 07:16:25;;;;;;;7.90;5.10;;;;;;;17.86;69.34;97269.97;6155469;23;20117;-78
2022/05/17 07:18:54;;;;;;;9.18;4.85;;;;;;;17.95;67.89;97274.00;6155468;23;20028;-78
2022/05/17 07:21:43;;;;;;;8.20;4.90;;;;;;;18.03;66.88;97283.50;6155408;23;20017;-78
2022/05/17 07:24:11;;;;;;;7.47;4.85;;;;;;;18.11;67.09;97267.41;6155223;23;20019;-78
2022/05/17 07:26:39;;;;;;;6.97;5.03;;;;;;;18.19;66.59;97267.16;6154982;23;20105;-78
2022/05/17 07:29:25;;;;;;;6.20;4.88;;;;;;;18.29;65.75;97269.31;6155516;23;20017;-79
2022/05/17 07:31:54;;;;;;;7.90;4.43;;;;;;;18.36;64.30;97271.91;6155137;23;20398;-79
2022/05/17 07:34:27;;;;;;;7.60;4.43;;;;;;;18.44;63.98;97272.44;6155877;23;20025;-78
2022/05/17 07:36:55;;;;;;;6.78;4.53;;;;;;;18.53;63.25;97268.50;6155154;23;20022;-79
2022/05/17 07:39:23;;;;;;;5.80;4.85;;;;;;;18.62;63.33;97265.59;6155701;23;20025;-78
2022/05/17 07:41:52;;;;;;;5.68;4.05;;;;;;;18.72;63.20;97271.22;6155001;23;20018;-78
2022/05/17 07:44:20;;;;;;;9.63;4.15;;;;;;;18.81;62.28;97264.66;6155550;23;20033;-78
2022/05/17 07:46:48;;;;;;;10.75;4.47;;;;;;;18.89;62.09;97267.03;6154630;23;20022;-78
2022/05/17 07:49:17;;;;;;;6.22;3.88;;;;;;;18.97;62.19;97270.41;6156089;23;20026;-78
2022/05/17 07:51:46;;;;;;;6.40;4.05;;;;;;;19.06;61.22;97266.44;6158721;23;20025;-78
2022/05/17 07:54:15;;;;;;;10.82;4.63;;;;;;;19.15;60.76;97270.41;6167175;23;20025;-78
2022/05/17 07:56:43;;;;;;;10.88;4.65;;;;;;;19.24;61.16;97269.09;6165965;23;20406;-79
2022/05/17 07:59:11;;;;;;;8.98;4.30;;;;;;;19.32;60.55;97265.34;6158372;23;20060;-78
2022/05/17 08:01:39;;;;;;;6.43;4.13;;;;;;;19.40;60.01;97261.59;6154980;23;20018;-78
2022/05/17 08:04:08;;;;;;;4.90;3.63;;;;;;;19.48;58.06;97256.00;6155181;23;20039;-78
2022/05/17 08:06:38;;;;;;;5.63;3.90;;;;;;;19.54;57.98;97258.56;6154843;23;20017;-78
2022/05/17 08:09:08;;;;;;;6.07;3.80;;;;;;;19.61;57.63;97253.19;6156111;23;20362;-78
2022/05/17 08:11:36;;;;;;;5.22;3.17;;;;;;;19.70;57.47;97251.06;6156287;23;20026;-78
2022/05/17 08:14:04;;;;;;;10.13;3.60;;;;;;;19.78;56.20;97255.25;6156742;23;20030;-79
2022/05/17 08:16:42;;;;;;;7.93;3.90;;;;;;;19.85;55.77;97253.31;6155769;23;20022;-78
2022/05/17 08:19:10;;;;;;;6.57;3.22;;;;;;;19.91;55.61;97253.22;6155329;23;20025;-79
2022/05/17 08:21:38;;;;;;;7.40;3.40;;;;;;;20.00;55.65;97255.56;6154802;23;20029;-78
2022/05/17 08:24:08;;;;;;;7.63;3.35;;;;;;;20.07;53.28;97251.78;6155182;23;20021;-78
2022/05/17 08:29:22;;;;;;;9.93;3.05;;;;;;;20.22;54.81;97254.00;6154976;23;20021;-78
2022/05/17 08:34:32;;;;;;;6.38;3.10;;;;;;;20.37;54.69;97261.50;6155964;23;20026;-79
2022/05/17 08:37:00;;;;;;;6.63;3.70;;;;;;;20.45;54.76;97255.09;6159405;23;20371;-78
2022/05/17 08:39:29;;;;;;;5.53;3.20;;;;;;;20.52;54.91;97259.22;6162025;23;20104;-79
2022/05/17 08:42:03;;;;;;;4.40;3.00;;;;;;;20.61;54.25;97262.38;6159937;23;20018;-78
2022/05/17 08:44:43;;;;;;;6.95;3.42;;;;;;;20.69;54.67;97263.91;6157080;23;20026;-78
2022/05/17 08:47:17;;;;;;;6.22;3.75;;;;;;;20.76;54.47;97270.69;6154393;23;20088;-78
2022/05/17 08:50:08;;;;;;;7.15;3.83;;;;;;;20.85;54.29;97263.19;6155008;23;20022;-78
2022/05/17 08:52:39;;;;;;;5.75;3.20;;;;;;;20.89;53.22;97264.34;6155259;23;20025;-79
2022/05/17 08:55:16;;;;;;;5.30;3.53;;;;;;;20.94;52.03;97261.00;6155502;23;20096;-78
2022/05/17 08:57:48;;;;;;;6.68;2.78;;;;;;;20.99;52.30;97266.44;6154901;23;20028;-78
2022/05/17 09:00:20;;;;;;;4.68;2.90;;;;;;;21.04;51.18;97265.72;6155366;23;20026;-78
2022/05/17 09:02:52;;;;;;;4.95;3.10;;;;;;;21.10;51.84;97262.97;6155177;23;20022;-78
2022/05/17 09:05:35;;;;;;;6.68;3.55;;;;;;;21.18;51.82;97259.94;6155448;23;20158;-78
2022/05/17 09:08:09;;;;;;;;;;;;;;;21.25;52.44;97270.41;6155525;23;20017;-78
2022/05/17 09:10:40;;;;;;;6.25;2.90;;;;;;;21.30;51.04;97259.91;6155475;23;19944;-78
2022/05/17 09:13:13;;;;;;;8.32;3.47;;;;;;;21.32;50.20;97267.66;6155256;23;20023;-79
2022/05/17 09:15:41;;;;;;;5.07;2.75;;;;;;;21.35;50.63;97261.88;6173901;23;20002;-78
2022/05/17 09:18:14;;;;;;;7.95;2.83;;;;;;;21.39;51.45;97257.72;6177881;23;20033;-78
2022/05/17 09:20:42;;;;;;;;;;;;;;;21.45;51.05;97263.94;6176581;23;20021;-78
2022/05/17 09:23:10;;;;;;;6.13;2.85;;;;;;;21.49;51.20;97270.41;6156067;23;19916;-78
2022/05/17 09:26:08;;;;;;;5.50;2.80;;;;;;;21.56;51.64;97263.13;6155475;23;20018;-78
2022/05/17 09:28:50;;;;;;;5.28;3.28;;;;;;;21.64;50.70;97253.97;6130859;23;20346;-79
2022/05/17 09:31:28;;;;;;;7.20;3.13;;;;;;;21.69;51.17;97265.50;6155576;23;20028;-79
2022/05/17 09:33:59;;;;;;;5.70;2.83;;;;;;;21.73;50.83;97252.53;6156773;23;20466;-78
2022/05/17 09:36:33;;;;;;;6.65;2.80;;;;;;;21.83;50.29;97268.66;6156811;23;20053;-78
2022/05/17 09:39:02;;;;;;;6.00;2.65;;;;;;;21.89;50.26;97262.41;6156904;23;20097;-78
2022/05/17 09:41:35;;;;;;;4.65;2.85;;;;;;;21.94;48.93;97259.03;6156825;23;20220;-78
2022/05/17 09:44:26;;;;;;;2.42;2.20;;;;;;;21.97;47.87;97255.91;6156764;23;20022;-79
2022/05/17 09:46:59;;;;;;;6.13;2.72;;;;;;;22.00;48.24;97258.09;6156354;23;20473;-78
2022/05/17 09:52:38;;;;;;;5.90;2.55;;;;;;;22.14;48.79;97254.06;6095074;23;20471;-78
2022/05/17 09:55:12;;;;;;;4.72;2.42;;;;;;;22.19;46.61;97254.19;6147418;23;20100;-78
2022/05/17 09:57:54;;;;;;;4.93;2.83;;;;;;;22.23;46.82;97245.75;6156677;23;20021;-78
2022/05/17 10:00:24;;;;;;;7.03;2.40;;;;;;;22.26;46.57;97245.25;6156831;23;20128;-78
2022/05/17 10:02:55;;;;;;;6.90;2.83;;;;;;;22.30;46.84;97241.91;6157210;23;20031;-78
2022/05/17 10:05:26;;;;;;;8.20;2.00;;;;;;;22.36;47.23;97246.22;6156759;23;20036;-78
2022/05/17 10:07:58;;;;;;;5.70;2.20;;;;;;;22.43;46.84;97251.38;6156012;23;20024;-78
2022/05/17 10:10:30;;;;;;;5.50;2.50;;;;;;;22.45;45.93;97249.28;6156596;23;20021;-78
2022/05/17 10:13:06;;;;;;;5.05;2.50;;;;;;;22.47;45.23;97241.88;6156081;23;20056;-78
2022/05/17 10:15:39;;;;;;;3.97;2.38;;;;;;;22.51;45.67;97245.69;6156904;23;20027;-78
2022/05/17 10:18:15;;;;;;;2.65;2.08;;;;;;;22.55;45.77;97249.47;6156299;23;20017;-78
2022/05/17 10:20:46;;;;;;;5.85;2.35;;;;;;;22.61;46.10;97247.69;6158029;23;20022;-78
2022/05/17 10:23:25;;;;;;;4.85;2.08;;;;;;;22.67;45.23;97248.56;6156582;23;20124;-78
2022/05/17 10:25:57;;;;;;;3.70;2.15;;;;;;;22.73;44.30;97244.94;6155845;23;20052;-78
2022/05/17 10:28:36;;;;;;;3.90;2.60;;;;;;;22.77;44.39;97246.06;6156555;23;20052;-78
2022/05/17 10:31:13;;;;;;;3.65;2.45;;;;;;;22.82;44.28;97256.78;6156251;23;20027;-78
2022/05/17 10:33:54;;;;;;;2.50;2.22;;;;;;;22.87;44.76;97251.53;6156206;23;20477;-79
2022/05/17 10:36:26;;;;;;;3.25;1.92;;;;;;;22.91;44.29;97249.97;6155374;23;20021;-79
2022/05/17 10:39:02;;;;;;;4.80;1.75;;;;;;;22.99;45.53;97251.44;6156448;23;20104;-78
2022/05/17 10:41:29;;;;;;;3.58;2.00;;;;;;;23.07;44.22;97248.38;6156582;23;20056;-78
2022/05/17 10:43:59;;;;;;;4.82;2.17;;;;;;;23.12;44.71;97247.63;6157211;23;20044;-78
2022/05/17 10:46:31;;;;;;;2.40;2.00;;;;;;;23.20;45.24;97245.34;6155468;23;20482;-78
2022/05/17 10:49:13;;;;;;;3.50;1.80;;;;;;;23.28;43.37;97241.44;6155605;23;20029;-78
2022/05/17 10:51:48;;;;;;;4.30;2.20;;;;;;;23.34;43.10;97239.66;6156314;23;20022;-78
2022/05/17 10:54:25;;;;;;;3.55;1.80;;;;;;;23.38;43.05;97230.94;6156176;23;20053;-78
2022/05/17 10:57:04;;;;;;;4.88;1.85;;;;;;;23.45;43.25;97236.06;6157051;23;20022;-79
2022/05/17 10:59:43;;;;;;;3.33;1.67;;;;;;;23.51;43.63;97229.75;6155927;23;20045;-78
2022/05/17 11:02:27;;;;;;;4.78;1.83;;;;;;;23.57;42.44;97228.75;6155729;23;20469;-78
2022/05/17 11:05:12;;;;;;;4.53;1.63;;;;;;;23.62;42.04;97230.66;6156372;23;20022;-78
2022/05/17 11:07:50;;;;;;;4.95;1.65;;;;;;;23.66;42.29;97226.47;6155238;23;20079;-78
2022/05/17 11:10:30;;;;;;;1.67;1.58;;;;;;;23.72;40.86;97230.75;6156156;23;20028;-78
2022/05/17 11:13:14;;;;;;;1.30;1.20;;;;;;;23.76;40.42;97226.56;6155367;23;20386;-78
2022/05/17 11:15:49;;;;;;;3.25;1.58;;;;;;;23.79;40.60;97226.09;6156096;23;20104;-78
2022/05/17 11:18:24;;;;;;;2.10;1.10;;;;;;;23.85;40.39;97222.44;6156182;23;20026;-77
2022/05/17 11:20:57;;;;;;;3.92;1.73;;;;;;;23.91;40.32;97223.25;6156949;23;20415;-78
2022/05/17 11:23:43;;;;;;;3.38;1.70;;;;;;;23.96;40.72;97223.28;6156662;23;20472;-78
2022/05/17 11:26:39;;;;;;;2.38;1.50;;;;;;;23.99;41.27;97214.81;6154138;23;20028;-78
2022/05/17 11:29:33;;;;;;;2.67;1.25;;;;;;;24.04;41.21;97216.72;6156339;23;20096;-78
2022/05/17 11:32:21;;;;;;;2.35;1.23;;;;;;;24.07;40.89;97208.22;6156369;23;20021;-78
2022/05/17 11:34:49;;;;;;;6.65;1.30;;;;;;;24.09;39.76;97208.75;6155871;23;20029;-78
2022/05/17 11:37:46;;;;;;;2.72;1.42;;;;;;;24.10;39.95;97209.59;6155403;23;20021;-78
2022/05/17 11:40:54;;;;;;;2.00;1.30;;;;;;;24.08;38.69;97209.84;6155976;23;20017;-79
2022/05/17 11:43:43;;;;;;;4.47;1.48;;;;;;;24.01;38.89;97204.72;6155333;23;20391;-78
2022/05/17 11:46:43;;;;;;;4.90;1.50;;;;;;;23.99;40.22;97208.69;6155822;23;20060;-78
2022/05/17 11:49:41;;;;;;;8.80;4.32;;;;;;;24.00;39.95;97202.28;6155465;23;20449;-78
2022/05/17 11:52:32;;;;;;;3.60;1.95;;;;;;;24.01;39.47;97199.38;6155845;23;20030;-78
2022/05/17 11:55:02;;;;;;;1.73;1.23;;;;;;;24.06;39.25;97198.63;6155486;23;20028;-79
2022/05/17 11:58:09;;;;;;;2.65;1.10;;;;;;;24.11;38.88;97196.00;6155373;23;20033;-78
2022/05/17 12:00:48;;;;;;;4.57;1.40;;;;;;;24.14;39.10;97187.50;6154374;23;20057;-78
2022/05/17 12:03:51;;;;;;;4.07;1.80;;;;;;;24.17;39.26;97189.66;6156772;23;20089;-78
2022/05/17 12:07:04;;;;;;;2.45;1.23;;;;;;;24.16;38.91;97190.72;6156623;23;20029;-78
2022/05/17 12:09:38;;;;;;;2.20;1.10;;;;;;;24.18;38.98;97190.44;6176636;23;20021;-78
2022/05/17 12:15:13;;;;;;;4.32;1.65;;;;;;;24.25;39.20;97175.84;6229138;23;20056;-83
2022/05/17 12:26:30;;;;;;;2.42;1.20;;;;;;;24.47;40.26;97174.94;6160759;23;20004;-82
2022/05/17 13:02:42;;;;;;;1.58;1.10;;;;;;;24.48;37.50;97155.22;6140923;23;20006;-82
2022/05/17 13:19:00;;;;;;;4.32;0.82;;;;;;;24.51;38.04;97128.06;6167756;23;20012;-80
2022/05/17 13:46:59;;;;;;;4.32;1.02;;;;;;;24.61;37.32;97106.75;6181286;23;20013;-79
2022/05/17 13:52:30;;;;;;;2.78;1.35;;;;;;;24.62;37.02;97105.72;6184692;23;20016;-82
2022/05/17 13:58:12;;;;;;;1.60;0.82;;;;;;;24.60;37.11;97099.03;6200051;22;20005;-81
2022/05/17 14:40:26;;;;;;;3.22;1.27;;;;;;;24.65;37.24;97067.84;5834716;23;7398849;-79
2022/05/17 14:43:12;;;;;;;2.03;1.30;;;;;;;24.66;37.09;97068.63;6090865;23;20031;-81
2022/05/17 14:46:31;;;;;;;2.67;0.90;;;;;;;24.64;36.62;97063.59;6073896;23;20032;-79
2022/05/17 14:52:21;;;;;;;1.87;0.97;;;;;;;24.63;37.36;97061.16;6074386;23;20019;-79
2022/05/17 15:11:48;;;;;;;1.17;0.80;;;;;;;24.54;36.68;97044.84;6131878;23;20017;-79
2022/05/17 15:17:38;;;;;;;2.92;0.77;;;;;;;24.51;36.82;97028.56;6144641;23;20021;-79
2022/05/17 15:20:46;;;;;;;1.40;0.90;;;;;;;24.48;36.27;97032.56;6161726;23;20057;-79
2022/05/17 15:23:48;;;;;;;3.97;1.10;;;;;;;24.45;37.33;97025.84;6161567;23;20057;-82
2022/05/17 15:32:01;;;;;;;1.20;0.70;;;;;;;24.43;36.79;97027.97;6126902;23;20010;-79
2022/05/17 15:54:34;;;;;;;0.90;0.70;;;;;;;24.41;35.38;97013.31;6096650;23;20007;-79
2022/05/17 15:57:10;;;;;;;1.23;0.98;;;;;;;24.39;35.09;97016.22;6072625;23;20026;-79
2022/05/17 15:59:42;;;;;;;2.08;0.70;;;;;;;24.39;35.03;97015.44;6096206;23;20010;-80
2022/05/17 16:02:22;;;;;;;2.17;0.68;;;;;;;24.37;34.41;97014.88;6072404;23;20022;-79
2022/05/17 16:05:20;;;;;;;2.92;1.20;;;;;;;24.34;34.93;97020.75;6096662;23;20050;-79
2022/05/17 16:08:12;;;;;;;4.60;1.33;;;;;;;24.33;34.99;97016.47;6096644;23;20062;-80
2022/05/17 16:11:47;;;;;;;2.28;0.93;;;;;;;24.31;34.65;97014.06;6096100;23;20039;-79
2022/05/17 16:16:52;;;;;;;1.00;0.85;;;;;;;24.28;35.57;97014.59;6142508;23;20026;-80
2022/05/17 16:19:48;;;;;;;2.38;0.93;;;;;;;24.29;35.62;97012.72;6154906;23;20017;-79
2022/05/17 16:22:34;;;;;;;1.35;0.98;;;;;;;24.28;34.82;97011.91;6154457;23;20030;-79
2022/05/17 16:31:00;;;;;;;2.90;1.00;;;;;;;24.26;35.87;97004.16;6154552;23;20049;-80
2022/05/17 16:36:31;;;;;;;1.38;0.73;;;;;;;24.27;35.66;97007.66;6128699;23;20029;-79
2022/05/17 16:39:28;;;;;;;2.20;1.38;;;;;;;24.24;35.83;97011.63;6133685;23;20021;-80
2022/05/17 16:42:05;;;;;;;1.10;0.70;;;;;;;24.23;36.22;97014.56;6153797;23;20013;-79
2022/05/17 16:44:42;;;;;;;1.92;0.98;;;;;;;24.24;36.55;97018.81;6128401;23;20006;-78
2022/05/17 16:47:22;;;;;;;3.17;0.63;;;;;;;24.22;36.06;97016.41;6154516;23;20030;-79
2022/05/17 16:55:42;;;;;;;1.15;0.73;;;;;;;24.17;35.70;97013.72;6124457;23;20025;-79
2022/05/17 16:58:16;;;;;;;2.23;1.10;;;;;;;24.16;35.91;97017.47;6124605;23;20163;-79
2022/05/17 17:00:55;;;;;;;4.03;0.82;;;;;;;24.14;36.19;97022.25;6101612;23;20006;-79
2022/05/17 17:03:35;;;;;;;2.38;0.85;;;;;;;24.12;35.99;97021.72;6103063;23;20038;-79
2022/05/17 17:06:17;;;;;;;1.73;0.70;;;;;;;24.10;36.99;97026.50;6114356;23;20101;-80
2022/05/17 17:09:10;;;;;;;1.45;0.90;;;;;;;24.08;37.33;97023.28;6104240;23;20022;-82
2022/05/17 17:11:51;;;;;;;3.45;1.10;;;;;;;24.04;37.93;97027.50;6097335;23;20019;-82
2022/05/17 17:21:52;;;;;;;1.50;1.08;;;;;;;23.89;38.35;97028.22;6099469;23;20019;-81
2022/05/17 17:24:25;;;;;;;3.85;1.42;;;;;;;23.88;39.01;97031.13;6071915;23;20050;-81
2022/05/17 17:26:59;;;;;;;2.80;1.30;;;;;;;23.84;39.12;97033.53;6071992;23;20422;-80
2022/05/17 17:29:34;;;;;;;2.47;1.00;;;;;;;23.82;39.12;97033.75;6069471;23;20482;-81
2022/05/17 17:37:42;;;;;;;2.75;1.15;;;;;;;23.75;39.75;97043.84;6070954;23;20042;-81
2022/05/17 17:40:22;;;;;;;2.70;1.27;;;;;;;23.73;40.37;97043.25;6071400;23;20023;-81
2022/05/17 17:53:42;;;;;;;7.35;1.30;;;;;;;23.43;44.05;97041.94;6128836;23;20069;-80
2022/05/17 17:59:17;;;;;;;2.95;1.35;;;;;;;23.26;45.01;97038.59;6120053;23;20062;-79
2022/05/17 18:31:19;;;;;;;3.20;2.20;;;;;;;22.67;48.05;97052.59;6151543;23;20021;-81
2022/05/17 18:33:57;;;;;;;3.45;2.10;;;;;;;22.61;48.09;97057.06;6153663;23;20006;-79
2022/05/17 18:36:39;;;;;;;1.52;1.42;;;;;;;22.53;48.27;97065.44;6153065;23;20057;-79
2022/05/17 18:39:19;;;;;;;2.35;1.40;;;;;;;22.46;48.33;97066.69;6149383;23;20022;-78
2022/05/17 18:41:56;;;;;;;7.88;4.60;;;;;;;22.38;48.53;97073.22;6151963;23;20054;-79
2022/05/17 18:44:26;;;;;;;12.77;7.03;;;;;;;22.30;48.61;97081.63;6148924;23;20046;-78
2022/05/17 19:15:31;;;;;;;4.13;2.80;;;;;;;21.44;48.97;97090.63;6115802;23;20053;-80
2022/05/17 19:24:38;;;;;;;5.47;2.33;;;;;;;21.23;49.02;97108.03;6102054;23;20038;-80
2022/05/17 19:27:10;;;;;;;5.43;2.55;;;;;;;21.17;49.38;97104.47;6121798;23;20058;-78
2022/05/17 19:29:38;;;;;;;3.38;2.22;;;;;;;21.12;49.55;97108.84;6103207;23;20018;-79
2022/05/17 19:32:12;;;;;;;5.15;1.83;;;;;;;21.07;49.86;97104.25;6106121;23;20057;-77
2022/05/17 19:34:43;;;;;;;3.65;2.05;;;;;;;21.05;49.88;97110.84;6108288;23;20026;-78
2022/05/17 19:40:07;;;;;;;6.78;2.97;;;;;;;20.99;50.82;97109.97;6097144;23;20030;-78
2022/05/17 19:42:35;;;;;;;10.68;3.90;;;;;;;20.96;50.47;97103.25;6097344;23;20029;-78
2022/05/17 19:45:02;;;;;;;13.95;4.55;;;;;;;20.92;50.23;97110.06;6097045;23;20022;-78
2022/05/17 19:47:38;;;;;;;6.05;3.22;;;;;;;20.86;50.56;97116.31;6094359;23;20569;-78
2022/05/17 19:50:10;;;;;;;4.63;2.60;;;;;;;20.82;50.83;97119.69;6097438;23;20028;-78
2022/05/17 19:52:38;;;;;;;4.80;2.40;;;;;;;20.78;51.28;97119.34;6097372;23;20018;-77
2022/05/17 19:55:06;;;;;;;5.57;2.75;;;;;;;20.73;51.58;97114.75;6096377;23;20241;-77
2022/05/17 19:57:35;;;;;;;6.82;3.20;;;;;;;20.70;51.62;97117.03;6095729;23;20102;-78
2022/05/17 20:00:03;;;;;;;5.80;3.25;;;;;;;20.66;51.54;97122.03;6096522;23;20413;-77
2022/05/17 20:02:31;;;;;;;4.47;2.75;;;;;;;20.63;51.38;97119.03;6096379;23;20028;-77
2022/05/17 20:05:00;;;;;;;3.83;2.78;;;;;;;20.61;51.74;97123.75;6096735;23;20023;-77
2022/05/17 20:07:28;;;;;;;7.93;2.55;;;;;;;20.57;51.52;97118.09;6095728;23;20358;-78
2022/05/17 20:09:55;;;;;;;7.25;2.67;;;;;;;20.53;51.69;97123.03;6097042;23;20074;-77
2022/05/17 20:12:23;;;;;;;3.72;2.65;;;;;;;20.50;51.60;97123.50;6096790;23;20022;-77
2022/05/17 20:14:51;;;;;;;12.60;2.72;;;;;;;20.47;51.71;97128.47;6097198;23;20026;-77
2022/05/17 20:17:18;;;;;;;3.22;2.13;;;;;;;20.42;51.71;97130.97;6096098;23;20363;-77
2022/05/17 20:19:46;;;;;;;4.10;2.35;;;;;;;20.38;51.96;97138.59;6096951;23;20517;-77
2022/05/17 20:22:15;;;;;;;6.20;3.00;;;;;;;20.34;52.23;97138.25;6096993;23;20053;-77
2022/05/17 20:24:46;;;;;;;6.40;2.72;;;;;;;20.31;52.23;97146.69;6096542;23;20585;-77
2022/05/17 20:27:14;;;;;;;4.20;2.90;;;;;;;20.27;52.36;97156.13;6095611;23;20026;-78
2022/05/17 20:29:42;;;;;;;5.72;2.40;;;;;;;20.22;52.14;97148.03;6096818;23;20023;-77
2022/05/17 20:32:13;;;;;;;6.57;3.75;;;;;;;20.16;52.42;97148.97;6096480;23;20054;-77
2022/05/17 20:34:41;;;;;;;6.32;4.03;;;;;;;20.10;52.53;97140.09;6096925;23;20030;-77
2022/05/17 20:37:16;;;;;;;5.30;2.53;;;;;;;20.04;52.78;97151.59;6095702;23;20530;-78
2022/05/17 20:39:43;;;;;;;9.10;2.72;;;;;;;20.00;52.88;97145.13;6096833;23;20116;-77
2022/05/17 20:42:11;;;;;;;4.05;2.38;;;;;;;19.96;53.16;97150.09;6097115;23;20022;-77
2022/05/17 20:44:39;;;;;;;5.53;2.42;;;;;;;19.93;53.16;97149.72;6096957;23;20018;-77
2022/05/17 20:49:52;;;;;;;3.28;2.33;;;;;;;19.84;53.52;97154.56;6097520;23;20062;-78
2022/05/17 20:52:21;;;;;;;6.45;2.47;;;;;;;19.82;53.58;97161.13;6097100;23;20022;-78
2022/05/17 20:54:49;;;;;;;4.55;2.72;;;;;;;19.81;53.50;97162.13;6097414;23;20031;-78
2022/05/17 20:57:16;;;;;;;4.25;2.28;;;;;;;19.79;53.26;97158.91;6096621;23;20022;-78
2022/05/17 20:59:45;;;;;;;5.20;2.17;;;;;;;19.77;53.20;97159.16;6097131;23;20053;-77
2022/05/17 21:02:14;;;;;;;3.58;2.80;;;;;;;19.72;53.26;97153.72;6097047;23;20023;-77
2022/05/17 21:04:42;;;;;;;6.97;2.17;;;;;;;19.68;53.26;97166.56;6097619;23;20077;-77
2022/05/17 21:07:10;;;;;;;3.72;2.60;;;;;;;19.61;53.32;97168.50;6096106;23;20070;-77
2022/05/17 21:09:39;;;;;;;4.85;2.30;;;;;;;19.54;53.56;97170.44;6097118;23;20482;-78
2022/05/17 21:12:07;;;;;;;4.20;2.13;;;;;;;19.45;53.86;97174.44;6096704;23;20018;-77
2022/05/17 21:14:35;;;;;;;3.42;2.33;;;;;;;19.39;54.05;97170.03;6096834;23;20114;-77
2022/05/17 21:17:03;;;;;;;4.57;2.75;;;;;;;19.30;54.28;97172.16;6095488;23;20022;-77
2022/05/17 21:19:33;;;;;;;4.85;2.25;;;;;;;19.24;54.44;97179.19;6097241;23;20033;-78
2022/05/17 21:22:01;;;;;;;5.00;2.22;;;;;;;19.18;54.76;97169.47;6096848;23;20062;-77
2022/05/17 21:24:30;;;;;;;6.43;2.95;;;;;;;19.11;54.77;97174.03;6097106;23;20029;-78
2022/05/17 21:26:59;;;;;;;4.57;2.58;;;;;;;19.05;54.88;97172.28;6095919;23;20098;-78
2022/05/17 21:29:30;;;;;;;4.43;2.30;;;;;;;19.01;55.07;97169.28;6096334;23;20022;-78
2022/05/17 21:31:58;;;;;;;4.50;2.95;;;;;;;18.97;55.08;97176.03;6097024;23;20053;-77
2022/05/17 21:34:26;;;;;;;4.25;2.40;;;;;;;18.93;55.21;97180.97;6096989;23;20030;-77
2022/05/17 21:36:54;;;;;;;6.50;2.90;;;;;;;18.90;55.35;97181.38;6096318;23;20401;-78
2022/05/17 21:39:29;;;;;;;6.13;2.65;;;;;;;18.88;55.31;97187.94;6096901;23;20018;-78
2022/05/17 21:41:59;;;;;;;8.32;3.20;;;;;;;18.86;55.34;97182.84;6096810;23;20073;-77
2022/05/17 21:44:27;;;;;;;2.75;2.22;;;;;;;18.87;55.67;97184.47;6097625;23;20023;-77
2022/05/17 21:46:55;;;;;;;2.88;2.40;;;;;;;18.88;55.35;97180.81;6113933;23;20078;-77
2022/05/17 21:49:23;;;;;;;4.82;2.75;;;;;;;18.87;55.55;97181.84;6117316;23;20026;-78
2022/05/17 21:51:52;;;;;;;4.07;2.40;;;;;;;18.87;55.46;97184.47;6114616;23;20022;-77
2022/05/17 21:54:20;;;;;;;3.35;2.53;;;;;;;18.87;55.57;97184.47;6098090;23;20014;-77
2022/05/17 21:56:47;;;;;;;3.60;2.35;;;;;;;18.88;55.80;97185.28;6096108;23;20089;-77
2022/05/17 21:59:18;;;;;;;4.18;2.90;;;;;;;18.89;56.13;97177.16;6096144;23;20146;-77
2022/05/17 22:01:46;;;;;;;4.80;2.63;;;;;;;18.89;55.79;97177.16;6096630;23;20033;-77
2022/05/17 22:04:14;;;;;;;3.95;3.05;;;;;;;18.87;55.51;97179.19;6096576;23;20019;-77
2022/05/17 22:06:41;;;;;;;5.13;1.90;;;;;;;18.83;55.69;97183.31;6095115;23;20022;-77
2022/05/17 22:09:09;;;;;;;3.13;2.40;;;;;;;18.80;56.07;97189.00;6096323;23;20026;-77
2022/05/17 22:14:24;;;;;;;3.60;2.95;;;;;;;18.72;56.20;97184.00;6096558;23;20018;-77
2022/05/17 22:16:52;;;;;;;4.28;3.33;;;;;;;18.68;55.96;97185.47;6094861;23;20025;-77
2022/05/17 22:19:20;;;;;;;4.35;3.42;;;;;;;18.65;56.12;97194.66;6096326;23;20026;-77
2022/05/17 22:21:47;;;;;;;3.78;3.05;;;;;;;18.64;56.00;97184.28;6096054;23;20463;-77
2022/05/17 22:24:22;;;;;;;3.17;2.83;;;;;;;18.65;56.05;97186.72;6096320;23;20018;-77
2022/05/17 22:26:52;;;;;;;4.13;2.47;;;;;;;18.64;56.11;97193.00;6095295;23;20022;-77
2022/05/17 22:29:20;;;;;;;3.35;2.90;;;;;;;18.65;56.32;97184.06;6095869;23;20471;-77